Asian Naga — 3FOV4 — position and weather

sailwx.info

Track history (hours):
 
Tides and Currents Weather Stations Pressure Air Temp Water Temp Dewpoint Dewpoint Depression Visibility Wind Speed Wind Dir Waves Ship Positions

Asian Naga

Last reported at 2018-May-25 01:04 UTC. Time now 2018-Jun-22 05:41 UTC.
Position N 36°06' E 120°19'.
Warning: this ship's position is 28 days out of date.

Length 124 m; draft 8.9 m.

Type: Cargo ship. MMSI: 357353000.

Date/timePositionNaut miles runAvg speedWind from/ knotsBaromVisibWave heightAir tempDewpointWater temp
2018-May-25 01:04N 36°06' E 120°19'0 0.0
2018-May-24 07:40N 36°06' E 120°19'0 0.0
2018-May-24 07:10N 36°06' E 120°19'0 0.0
2018-May-24 06:47N 36°06' E 120°19'0 0.0
2018-May-24 04:52N 36°06' E 120°19'0 0.0
2018-May-24 03:25N 36°06' E 120°19'0 0.0
2018-May-24 02:05N 36°06' E 120°19'0 0.1
2018-May-24 01:58N 36°06' E 120°19'0 0.0
2018-May-24 01:28N 36°06' E 120°19'0 0.0
2018-May-24 00:46N 36°06' E 120°19'0 0.0
2018-May-23 23:04N 36°06' E 120°19'0 0.0
2018-May-23 22:46N 36°06' E 120°19'0 0.0
2018-May-23 22:25N 36°06' E 120°19'0 0.0
2018-May-23 16:43N 36°06' E 120°19'0 0.0
2018-May-23 16:25N 36°06' E 120°19'1 0.6
2018-May-23 14:13N 36°05' E 120°18'3 8.7
2018-May-23 13:51N 36°02' E 120°16'5 9.6
2018-May-23 13:18N 36°01' E 120°23'610.9
2018-May-23 12:47N 36°00' E 120°29'  
2018-May-20 05:17N 34°25' E 134°21'312.8
2018-May-20 05:00N 34°26' E 134°25'612.4
2018-May-20 04:30N 34°28' E 134°32'612.8
2018-May-20 04:00N 34°31' E 134°39'713.6
2018-May-20 03:30N 34°33' E 134°47'714.2
2018-May-20 03:00N 34°36' E 134°55'713.1
2018-May-20 02:30N 34°36' E 135°03'511.1
2018-May-20 02:00N 34°31' E 135°04'713.0
2018-May-20 01:30N 34°25' E 135°02'713.0
2018-May-20 01:00N 34°18' E 134°60'611.2
2018-May-20 00:30N 34°13' E 134°59'611.4
2018-May-20 00:00N 34°07' E 134°59'612.0
2018-May-19 23:30N 34°01' E 134°59'611.7
2018-May-19 23:00N 33°55' E 134°58'510.3
2018-May-19 22:30N 33°50' E 134°59'238 6.9
2018-May-18 11:51N 34°51' E 139°38'513.2
2018-May-18 11:29N 34°55' E 139°40'612.7
2018-May-18 11:00N 35°01' E 139°42'611.8
2018-May-18 10:30N 35°07' E 139°44'611.7
2018-May-18 10:00N 35°12' E 139°46'510.9
2018-May-18 09:31N 35°17' E 139°45'611.3
2018-May-18 09:01N 35°23' E 139°42'611.4
2018-May-18 08:31N 35°27' E 139°47'610.4
2018-May-18 07:59N 35°31' E 139°51'4 9.3
2018-May-18 07:30N 35°35' E 139°48'2 1.4
2018-May-18 05:42N 35°36' E 139°46'0 0.0
2018-May-18 03:54N 35°36' E 139°46'0 0.0
2018-May-18 03:24N 35°36' E 139°46'0 0.0
2018-May-18 03:00N 35°36' E 139°46'0 0.1
2018-May-18 02:30N 35°36' E 139°46'0 0.1
2018-May-18 02:00N 35°36' E 139°46'0 0.8
2018-May-18 01:28N 35°36' E 139°47'3 7.5
2018-May-18 01:00N 35°34' E 139°50'510.0
2018-May-18 00:30N 35°29' E 139°52'612.1
2018-May-18 00:00N 35°25' E 139°47'612.0
2018-May-17 23:30N 35°19' E 139°44'611.6
2018-May-17 23:00N 35°14' E 139°47'610.8
2018-May-17 22:30N 35°08' E 139°47'713.2
2018-May-17 22:00N 35°02' E 139°44'1310.2
2018-May-17 20:45N 34°50' E 139°48'  
Track history (hours):
 
Tides and Currents Weather Stations Pressure Air Temp Water Temp Dewpoint Dewpoint Depression Visibility Wind Speed Wind Dir Waves Ship Positions

Asian Naga

Last reported at 2018-May-25 01:04 UTC. Time now 2018-Jun-22 05:41 UTC.
Position N 36°06' E 120°19'.
Warning: this ship's position is 28 days out of date.

Length 124 m; draft 8.9 m.

Type: Cargo ship. MMSI: 357353000.

Date/timePositionNaut miles runAvg speedWind from/ knotsBaromVisibWave heightAir tempDewpointWater temp
2018-May-25 01:04N 36°06' E 120°19'0 0.0
2018-May-24 07:40N 36°06' E 120°19'0 0.0
2018-May-24 07:10N 36°06' E 120°19'0 0.0
2018-May-24 06:47N 36°06' E 120°19'0 0.0
2018-May-24 04:52N 36°06' E 120°19'0 0.0
2018-May-24 03:25N 36°06' E 120°19'0 0.0
2018-May-24 02:05N 36°06' E 120°19'0 0.1
2018-May-24 01:58N 36°06' E 120°19'0 0.0
2018-May-24 01:28N 36°06' E 120°19'0 0.0
2018-May-24 00:46N 36°06' E 120°19'0 0.0
2018-May-23 23:04N 36°06' E 120°19'0 0.0
2018-May-23 22:46N 36°06' E 120°19'0 0.0
2018-May-23 22:25N 36°06' E 120°19'0 0.0
2018-May-23 16:43N 36°06' E 120°19'0 0.0
2018-May-23 16:25N 36°06' E 120°19'1 0.6
2018-May-23 14:13N 36°05' E 120°18'3 8.7
2018-May-23 13:51N 36°02' E 120°16'5 9.6
2018-May-23 13:18N 36°01' E 120°23'610.9
2018-May-23 12:47N 36°00' E 120°29'  
2018-May-20 05:17N 34°25' E 134°21'312.8
2018-May-20 05:00N 34°26' E 134°25'612.4
2018-May-20 04:30N 34°28' E 134°32'612.8
2018-May-20 04:00N 34°31' E 134°39'713.6
2018-May-20 03:30N 34°33' E 134°47'714.2
2018-May-20 03:00N 34°36' E 134°55'713.1
2018-May-20 02:30N 34°36' E 135°03'511.1
2018-May-20 02:00N 34°31' E 135°04'713.0
2018-May-20 01:30N 34°25' E 135°02'713.0
2018-May-20 01:00N 34°18' E 134°60'611.2
2018-May-20 00:30N 34°13' E 134°59'611.4
2018-May-20 00:00N 34°07' E 134°59'612.0
2018-May-19 23:30N 34°01' E 134°59'611.7
2018-May-19 23:00N 33°55' E 134°58'510.3
2018-May-19 22:30N 33°50' E 134°59'238 6.9
2018-May-18 11:51N 34°51' E 139°38'513.2
2018-May-18 11:29N 34°55' E 139°40'612.7
2018-May-18 11:00N 35°01' E 139°42'611.8
2018-May-18 10:30N 35°07' E 139°44'611.7
2018-May-18 10:00N 35°12' E 139°46'510.9
2018-May-18 09:31N 35°17' E 139°45'611.3
2018-May-18 09:01N 35°23' E 139°42'611.4
2018-May-18 08:31N 35°27' E 139°47'610.4
2018-May-18 07:59N 35°31' E 139°51'4 9.3
2018-May-18 07:30N 35°35' E 139°48'2 1.4
2018-May-18 05:42N 35°36' E 139°46'0 0.0
2018-May-18 03:54N 35°36' E 139°46'0 0.0
2018-May-18 03:24N 35°36' E 139°46'0 0.0
2018-May-18 03:00N 35°36' E 139°46'0 0.1
2018-May-18 02:30N 35°36' E 139°46'0 0.1
2018-May-18 02:00N 35°36' E 139°46'0 0.8
2018-May-18 01:28N 35°36' E 139°47'3 7.5
2018-May-18 01:00N 35°34' E 139°50'510.0
2018-May-18 00:30N 35°29' E 139°52'612.1
2018-May-18 00:00N 35°25' E 139°47'612.0
2018-May-17 23:30N 35°19' E 139°44'611.6
2018-May-17 23:00N 35°14' E 139°47'610.8
2018-May-17 22:30N 35°08' E 139°47'713.2
2018-May-17 22:00N 35°02' E 139°44'1310.2
2018-May-17 20:45N 34°50' E 139°48'  

Dump ship's entire track history